Pagina principale
METAR-TAF:

METAR-TAF

Aeroporti :

Aeroporto di Salerno-Costa d'Amalfi

Salerno, Italia

latitudine: 40-37N, longitudine: 014-55E, altezza: 40 m

Osservazione

Il bollettino è stato emesso 7 ore e 1 minuti fa, alle 16:50 UTC
Vento 1 kt da direzioni variabili
Temperature 24°C
Umidità 78%
Pressione 1015 hPa
Visibilità 10 km o più
Nubi sparse ad un'altezza di 4000 ft

METAR: LIRI 141650Z VRB01KT 9999 SCT040 24/20 Q1015

Ora: 01:51 (23:51 UTC)


TAF: mancante

Osservazioni e previsioni meteorologiche di più di 4000 aeroporti (messaggi METAR e TAF).

Le stazioni disponibili sono rappresentate dai dischi gialli e rossi sulla carta.

Puntare il mouse per vedere il nome della stazione.

Clicca sopra per visualizzare le osservazioni e previsioni meteorologiche.

Per cambiare la mappa : fare clic sui pulsanti verdi con una croce nera per ingrandire, il pulsante verde con un trattino per diminuire, o sulla freccia verde per le mappe adiacenti.


METAR-TAF: